createdAt,value
2019-02-10T00:00:41.117Z,21.90
2019-02-10T00:01:41.118Z,20.60
2019-02-10T00:02:41.075Z,16.90
2019-02-10T00:03:41.175Z,14.80
2019-02-10T00:04:41.003Z,11.00
2019-02-10T00:05:40.990Z,8.30
2019-02-10T00:06:40.959Z,7.00
2019-02-10T00:07:40.904Z,8.30
2019-02-10T00:08:40.904Z,9.40
2019-02-10T00:09:40.842Z,5.80
2019-02-10T00:10:40.880Z,4.60
2019-02-10T00:11:40.790Z,3.30
2019-02-10T00:12:40.755Z,2.90
2019-02-10T00:13:40.738Z,2.60
2019-02-10T00:14:40.681Z,3.00
2019-02-10T00:15:40.669Z,3.80
2019-02-10T00:16:40.657Z,2.00
2019-02-10T00:17:40.577Z,5.20
2019-02-10T00:18:40.872Z,2.50
2019-02-10T00:19:40.641Z,2.20
2019-02-10T00:20:40.899Z,1.60
2019-02-10T00:21:40.472Z,1.90
2019-02-10T00:22:40.421Z,2.40
2019-02-10T00:23:40.414Z,3.20
2019-02-10T00:24:40.360Z,5.30
2019-02-10T00:25:40.322Z,2.00
2019-02-10T00:26:40.454Z,2.00
2019-02-10T00:27:40.291Z,2.00
2019-02-10T00:28:40.255Z,2.00
2019-02-10T00:29:40.223Z,1.90
2019-02-10T00:30:40.188Z,1.50
2019-02-10T00:31:40.154Z,1.70
2019-02-10T00:32:40.124Z,7.10
2019-02-10T00:33:40.278Z,1.40
2019-02-10T00:34:40.059Z,1.90
2019-02-10T00:35:40.040Z,2.90
2019-02-10T00:36:39.989Z,1.40
2019-02-10T00:37:39.968Z,2.40
2019-02-10T00:38:39.927Z,1.70
2019-02-10T00:39:39.905Z,1.40
2019-02-10T00:40:39.866Z,1.80
2019-02-10T00:41:39.833Z,2.20
2019-02-10T00:42:39.827Z,1.10
2019-02-10T00:43:39.788Z,1.80
2019-02-10T00:44:39.714Z,1.60
2019-02-10T00:45:39.692Z,1.60
2019-02-10T00:46:39.766Z,1.30
2019-02-10T00:47:39.631Z,1.40
2019-02-10T00:48:39.612Z,2.50
2019-02-10T00:49:39.585Z,1.20
2019-02-10T00:50:39.544Z,1.40
2019-02-10T00:51:39.516Z,1.50
2019-02-10T00:52:39.483Z,1.30
2019-02-10T00:53:39.609Z,3.20
2019-02-10T00:54:39.410Z,1.10
2019-02-10T00:55:39.402Z,1.90
2019-02-10T00:56:39.365Z,2.40
2019-02-10T00:57:39.330Z,2.70
2019-02-10T00:58:39.304Z,2.40
2019-02-10T00:59:39.352Z,1.70
2019-02-10T01:00:39.230Z,2.10
2019-02-10T01:01:39.213Z,1.20
2019-02-10T01:02:39.151Z,1.60
2019-02-10T01:03:39.161Z,1.70
2019-02-10T01:04:39.142Z,1.80
2019-02-10T01:05:39.077Z,1.60
2019-02-10T01:06:41.530Z,2.90
2019-02-10T01:07:38.994Z,1.50
2019-02-10T01:08:38.973Z,1.50
2019-02-10T01:09:38.957Z,1.70
2019-02-10T01:10:38.906Z,2.00
2019-02-10T01:11:39.818Z,1.70
2019-02-10T01:12:38.900Z,1.90
2019-02-10T01:13:38.839Z,3.10
2019-02-10T01:14:39.091Z,1.50
2019-02-10T01:15:38.750Z,1.40
2019-02-10T01:16:38.717Z,1.70
2019-02-10T01:17:38.682Z,1.70
2019-02-10T01:18:38.665Z,1.40
2019-02-10T01:19:38.677Z,2.30
2019-02-10T01:20:38.586Z,1.50
2019-02-10T01:21:38.561Z,1.70
2019-02-10T01:22:38.536Z,4.80
2019-02-10T01:23:38.484Z,1.70
2019-02-10T01:24:38.466Z,3.20
2019-02-10T01:25:38.437Z,2.50
2019-02-10T01:26:38.409Z,1.70
2019-02-10T01:27:38.400Z,2.60
2019-02-10T01:28:38.342Z,1.80
2019-02-10T01:29:38.307Z,1.60
2019-02-10T01:30:38.259Z,1.50
2019-02-10T01:31:38.241Z,2.00
2019-02-10T01:32:38.207Z,3.40
2019-02-10T01:33:38.184Z,1.60
2019-02-10T01:34:38.146Z,3.60
2019-02-10T01:35:38.136Z,2.30
2019-02-10T01:36:38.114Z,1.80
2019-02-10T01:37:38.068Z,1.30
2019-02-10T01:38:38.031Z,2.50
2019-02-10T01:39:37.969Z,1.40
2019-02-10T01:40:37.964Z,1.70
2019-02-10T01:41:37.929Z,1.10
2019-02-10T01:42:37.902Z,3.10
2019-02-10T01:43:37.896Z,1.70
2019-02-10T01:44:37.848Z,1.30
2019-02-10T01:45:37.789Z,1.40
2019-02-10T01:46:37.772Z,1.40
2019-02-10T01:47:37.726Z,1.70
2019-02-10T01:48:38.049Z,1.60
2019-02-10T01:49:37.654Z,1.40
2019-02-10T01:50:37.659Z,1.70
2019-02-10T01:51:37.591Z,1.60
2019-02-10T01:52:37.567Z,1.60
2019-02-10T01:53:37.747Z,2.30
2019-02-10T01:54:37.543Z,2.00
2019-02-10T01:55:37.487Z,1.10
2019-02-10T01:56:37.450Z,1.30
2019-02-10T01:57:37.413Z,1.30
2019-02-10T01:58:37.364Z,1.70
2019-02-10T01:59:37.337Z,3.10
2019-02-10T02:00:37.318Z,1.20
2019-02-10T02:01:37.289Z,2.40
2019-02-10T02:02:37.238Z,1.60
2019-02-10T02:03:37.201Z,6.60
2019-02-10T02:04:37.167Z,2.50
2019-02-10T02:05:37.142Z,1.90
2019-02-10T02:06:37.146Z,1.50
2019-02-10T02:07:37.082Z,1.40
2019-02-10T02:08:37.076Z,2.50
2019-02-10T02:09:37.064Z,2.20
2019-02-10T02:10:37.006Z,1.10
2019-02-10T02:11:36.941Z,3.30
2019-02-10T02:12:36.934Z,1.30
2019-02-10T02:13:36.921Z,2.30
2019-02-10T02:14:36.873Z,2.20
2019-02-10T02:15:36.849Z,1.50
2019-02-10T02:16:36.802Z,1.90
2019-02-10T02:17:36.774Z,1.30
2019-02-10T02:18:36.738Z,1.40
2019-02-10T02:19:36.680Z,2.80
2019-02-10T02:20:36.674Z,1.60
2019-02-10T02:21:36.799Z,1.70
2019-02-10T02:22:36.602Z,6.80
2019-02-10T02:23:36.572Z,2.00
2019-02-10T02:24:36.532Z,2.60
2019-02-10T02:25:36.521Z,1.40
2019-02-10T02:26:36.482Z,2.50
2019-02-10T02:27:36.434Z,1.80
2019-02-10T02:28:36.403Z,1.40
2019-02-10T02:29:36.391Z,1.40
2019-02-10T02:30:36.367Z,1.20
2019-02-10T02:31:36.327Z,1.90
2019-02-10T02:32:36.282Z,1.60
2019-02-10T02:33:36.231Z,1.80
2019-02-10T02:34:36.220Z,1.60
2019-02-10T02:35:36.195Z,2.50
2019-02-10T02:36:36.145Z,1.20
2019-02-10T02:37:36.162Z,1.10
2019-02-10T02:38:36.088Z,1.00
2019-02-10T02:39:36.076Z,1.70
2019-02-10T02:40:36.030Z,1.80
2019-02-10T02:41:35.994Z,1.40
2019-02-10T02:42:35.970Z,1.40
2019-02-10T02:43:35.934Z,1.10
2019-02-10T02:44:35.909Z,1.40
2019-02-10T02:45:35.864Z,1.30
2019-02-10T02:46:35.848Z,1.30
2019-02-10T02:47:35.801Z,1.70
2019-02-10T02:48:35.770Z,1.30
2019-02-10T02:49:35.739Z,1.30
2019-02-10T02:50:35.687Z,1.10
2019-02-10T02:51:35.685Z,1.30
2019-02-10T02:52:35.659Z,1.20
2019-02-10T02:53:35.807Z,1.10
2019-02-10T02:54:35.570Z,3.40
2019-02-10T02:55:35.561Z,1.40
2019-02-10T02:56:35.511Z,3.70
2019-02-10T02:57:35.478Z,5.10
2019-02-10T02:58:35.463Z,2.40
2019-02-10T02:59:35.422Z,3.10
2019-02-10T03:00:35.423Z,1.60
2019-02-10T03:01:35.357Z,3.90
2019-02-10T03:02:35.331Z,2.00
2019-02-10T03:03:35.294Z,1.30
2019-02-10T03:04:35.259Z,1.40
2019-02-10T03:05:35.216Z,1.10
2019-02-10T03:06:35.207Z,1.70
2019-02-10T03:07:35.171Z,2.70
2019-02-10T03:08:35.134Z,1.50
2019-02-10T03:09:35.097Z,1.40
2019-02-10T03:10:35.071Z,1.30
2019-02-10T03:11:35.024Z,2.70
2019-02-10T03:12:35.031Z,2.40
2019-02-10T03:13:34.979Z,1.40
2019-02-10T03:14:34.934Z,1.70
2019-02-10T03:15:34.929Z,1.50
2019-02-10T03:16:34.859Z,1.20
2019-02-10T03:17:34.854Z,1.20
2019-02-10T03:18:34.813Z,1.60
2019-02-10T03:19:34.795Z,1.60
2019-02-10T03:20:34.743Z,4.40
2019-02-10T03:21:34.729Z,1.50
2019-02-10T03:22:34.681Z,2.10
2019-02-10T03:23:34.679Z,1.10
2019-02-10T03:24:34.618Z,1.40
2019-02-10T03:25:34.762Z,3.50
2019-02-10T03:26:34.553Z,1.90
2019-02-10T03:27:34.507Z,2.40
2019-02-10T03:28:34.465Z,1.40
2019-02-10T03:29:34.463Z,3.70
2019-02-10T03:30:34.410Z,2.80
2019-02-10T03:31:34.411Z,1.90
2019-02-10T03:32:34.390Z,1.30
2019-02-10T03:33:34.320Z,1.30
2019-02-10T03:34:34.284Z,2.50
2019-02-10T03:35:34.281Z,1.50
2019-02-10T03:36:34.229Z,1.50
2019-02-10T03:37:34.202Z,4.00
2019-02-10T03:38:34.140Z,2.60
2019-02-10T03:39:34.125Z,1.20
2019-02-10T03:40:34.103Z,1.30
2019-02-10T03:41:34.104Z,1.30
2019-02-10T03:42:34.046Z,1.30
2019-02-10T03:43:34.001Z,2.00
2019-02-10T03:44:33.982Z,1.70
2019-02-10T03:45:33.919Z,1.60
2019-02-10T03:46:33.980Z,1.40
2019-02-10T03:47:33.894Z,1.50
2019-02-10T03:48:33.829Z,1.70
2019-02-10T03:49:33.810Z,1.50
2019-02-10T03:50:33.771Z,1.10
2019-02-10T03:51:33.762Z,1.80
2019-02-10T03:52:34.055Z,3.70
2019-02-10T03:53:33.678Z,1.80
2019-02-10T03:54:33.643Z,2.00
2019-02-10T03:55:33.614Z,2.00
2019-02-10T03:56:33.585Z,1.60
2019-02-10T03:57:33.543Z,2.00
2019-02-10T03:58:33.514Z,1.40
2019-02-10T03:59:33.464Z,1.00
2019-02-10T04:00:33.451Z,4.10
2019-02-10T04:01:33.416Z,1.20
2019-02-10T04:02:33.394Z,1.10
2019-02-10T04:04:33.340Z,0.50
2019-02-10T04:05:33.297Z,1.80
2019-02-10T04:06:33.240Z,1.40
2019-02-10T04:07:36.197Z,3.10
2019-02-10T04:08:33.197Z,2.20
2019-02-10T04:09:33.156Z,1.40
2019-02-10T04:10:33.117Z,1.60
2019-02-10T04:11:33.077Z,1.70
2019-02-10T04:12:33.064Z,2.20
2019-02-10T04:13:33.046Z,2.20
2019-02-10T04:14:32.998Z,1.80
2019-02-10T04:15:32.969Z,1.70
2019-02-10T04:16:32.936Z,2.80
2019-02-10T04:17:32.894Z,1.30
2019-02-10T04:18:32.866Z,2.30
2019-02-10T04:19:32.849Z,1.40
2019-02-10T04:20:32.808Z,2.00
2019-02-10T04:21:32.772Z,1.20
2019-02-10T04:22:32.736Z,3.80
2019-02-10T04:23:32.692Z,2.60
2019-02-10T04:24:33.113Z,1.50
2019-02-10T04:25:32.633Z,1.40
2019-02-10T04:26:32.597Z,1.50
2019-02-10T04:27:32.583Z,5.20
2019-02-10T04:28:32.572Z,1.00
2019-02-10T04:29:32.525Z,1.60
2019-02-10T04:30:32.570Z,1.50
2019-02-10T04:31:32.447Z,2.80
2019-02-10T04:32:32.399Z,1.20
2019-02-10T04:33:32.377Z,2.40
2019-02-10T04:34:32.343Z,1.80
2019-02-10T04:35:32.324Z,1.70
2019-02-10T04:36:32.301Z,1.50
2019-02-10T04:37:32.256Z,1.80
2019-02-10T04:38:32.223Z,1.50
2019-02-10T04:39:32.212Z,3.20
2019-02-10T04:40:32.166Z,1.30
2019-02-10T04:41:32.134Z,1.40
2019-02-10T04:42:32.107Z,2.70
2019-02-10T04:43:32.062Z,1.60
2019-02-10T04:44:32.038Z,3.70
2019-02-10T04:45:32.002Z,1.30
2019-02-10T04:46:31.984Z,2.40
2019-02-10T04:47:31.943Z,1.30
2019-02-10T04:48:31.915Z,2.00
2019-02-10T04:49:31.860Z,1.50
2019-02-10T04:50:31.814Z,1.40
2019-02-10T04:51:31.812Z,1.40
2019-02-10T04:52:31.755Z,1.20
2019-02-10T04:53:31.717Z,3.00
2019-02-10T04:54:31.719Z,5.60
2019-02-10T04:55:31.673Z,1.90
2019-02-10T04:56:31.647Z,4.70
2019-02-10T04:57:31.606Z,1.90
2019-02-10T04:58:31.586Z,1.40
2019-02-10T04:59:31.556Z,1.50
2019-02-10T05:00:31.518Z,2.10
2019-02-10T05:01:31.479Z,1.40
2019-02-10T05:02:31.455Z,2.40
2019-02-10T05:03:31.431Z,2.40
2019-02-10T05:04:31.385Z,2.60
2019-02-10T05:05:31.365Z,2.00
2019-02-10T05:06:31.318Z,1.90
2019-02-10T05:07:31.290Z,2.20
2019-02-10T05:08:31.245Z,1.40
2019-02-10T05:09:31.217Z,1.30
2019-02-10T05:10:31.186Z,1.90
2019-02-10T05:11:31.165Z,2.80
2019-02-10T05:12:31.130Z,1.50
2019-02-10T05:13:31.126Z,1.80
2019-02-10T05:14:31.059Z,1.50
2019-02-10T05:15:31.019Z,1.40
2019-02-10T05:16:31.018Z,4.20
2019-02-10T05:17:30.988Z,1.30
2019-02-10T05:18:30.945Z,1.70
2019-02-10T05:19:30.914Z,1.40
2019-02-10T05:20:30.860Z,2.10
2019-02-10T05:21:30.837Z,1.60
2019-02-10T05:22:30.793Z,1.70
2019-02-10T05:23:30.771Z,2.70
2019-02-10T05:24:30.867Z,2.10
2019-02-10T05:25:30.735Z,1.40
2019-02-10T05:26:30.672Z,1.50
2019-02-10T05:27:30.647Z,1.50
2019-02-10T05:28:30.601Z,1.60
2019-02-10T05:29:30.563Z,2.00
2019-02-10T05:30:30.526Z,1.70
2019-02-10T05:31:30.506Z,1.60
2019-02-10T05:32:30.457Z,2.50
2019-02-10T05:33:30.442Z,2.70
2019-02-10T05:34:30.427Z,1.70
2019-02-10T05:35:30.372Z,1.50
2019-02-10T05:36:30.383Z,1.50
2019-02-10T05:37:30.309Z,3.20
2019-02-10T05:38:30.275Z,1.20
2019-02-10T05:39:30.275Z,2.70
2019-02-10T05:40:30.237Z,1.50
2019-02-10T05:41:30.187Z,1.80
2019-02-10T05:42:30.521Z,2.10
2019-02-10T05:43:30.125Z,1.80
2019-02-10T05:44:30.110Z,1.50
2019-02-10T05:45:30.071Z,1.80
2019-02-10T05:46:30.093Z,2.00
2019-02-10T05:48:29.954Z,1.30
2019-02-10T05:49:29.927Z,1.60
2019-02-10T05:50:29.901Z,1.70
2019-02-10T05:51:29.873Z,1.60
2019-02-10T05:52:29.828Z,1.20
2019-02-10T05:53:30.165Z,2.10
2019-02-10T05:54:29.771Z,2.30
2019-02-10T05:55:29.740Z,2.00
2019-02-10T05:56:29.715Z,1.70
2019-02-10T05:57:29.685Z,1.70
2019-02-10T05:58:29.625Z,2.10
2019-02-10T05:59:29.764Z,1.50
2019-02-10T06:00:29.560Z,2.00
2019-02-10T06:01:29.517Z,1.80
2019-02-10T06:02:29.536Z,1.60
2019-02-10T06:03:29.463Z,2.50
2019-02-10T06:04:29.429Z,2.90
2019-02-10T06:05:29.421Z,1.40
2019-02-10T06:06:29.384Z,1.50
2019-02-10T06:07:29.339Z,4.10
2019-02-10T06:08:29.304Z,1.80
2019-02-10T06:09:29.341Z,2.10
2019-02-10T06:10:29.253Z,2.20
2019-02-10T06:11:29.235Z,1.40
2019-02-10T06:12:29.189Z,3.10
2019-02-10T06:13:29.137Z,2.80
2019-02-10T06:14:29.145Z,2.90
2019-02-10T06:15:29.083Z,1.60
2019-02-10T06:16:29.037Z,1.50
2019-02-10T06:17:29.007Z,3.80
2019-02-10T06:18:29.005Z,1.50
2019-02-10T06:19:28.947Z,2.30
2019-02-10T06:20:28.911Z,2.60
2019-02-10T06:21:28.899Z,2.40
2019-02-10T06:22:28.848Z,2.00
2019-02-10T06:23:28.890Z,2.50
2019-02-10T06:24:28.806Z,1.50
2019-02-10T06:25:28.922Z,2.20
2019-02-10T06:26:28.719Z,5.80
2019-02-10T06:27:28.682Z,1.90
2019-02-10T06:28:28.644Z,2.80
2019-02-10T06:29:28.639Z,2.30
2019-02-10T06:30:28.608Z,1.70
2019-02-10T06:31:28.564Z,1.10
2019-02-10T06:32:28.509Z,1.80
2019-02-10T06:33:28.509Z,1.20
2019-02-10T06:34:28.469Z,5.00
2019-02-10T06:35:28.453Z,1.40
2019-02-10T06:36:28.397Z,1.60
2019-02-10T06:37:28.365Z,2.00
2019-02-10T06:38:28.343Z,3.40
2019-02-10T06:39:28.303Z,1.60
2019-02-10T06:40:28.280Z,1.40
2019-02-10T06:41:28.250Z,1.50
2019-02-10T06:42:28.207Z,2.90
2019-02-10T06:43:28.162Z,2.50
2019-02-10T06:44:28.157Z,1.80
2019-02-10T06:45:28.095Z,1.40
2019-02-10T06:46:28.063Z,3.00
2019-02-10T06:47:28.058Z,4.30
2019-02-10T06:48:28.020Z,1.90
2019-02-10T06:49:27.953Z,1.20
2019-02-10T06:50:27.937Z,1.40
2019-02-10T06:51:27.918Z,1.60
2019-02-10T06:52:27.868Z,1.40
2019-02-10T06:53:27.852Z,1.30
2019-02-10T06:54:27.822Z,1.40
2019-02-10T06:55:27.772Z,1.50
2019-02-10T06:56:27.774Z,1.50
2019-02-10T06:57:27.860Z,1.50
2019-02-10T06:58:27.678Z,1.30
2019-02-10T06:59:27.653Z,3.00
2019-02-10T07:00:27.628Z,1.70
2019-02-10T07:01:27.586Z,1.20
2019-02-10T07:02:27.570Z,2.90
2019-02-10T07:03:27.542Z,1.60
2019-02-10T07:04:27.495Z,3.90
2019-02-10T07:05:27.464Z,1.40
2019-02-10T07:06:27.410Z,1.50
2019-02-10T07:07:27.398Z,2.30
2019-02-10T07:08:30.655Z,1.80
2019-02-10T07:09:27.304Z,2.10
2019-02-10T07:10:27.295Z,1.30
2019-02-10T07:11:27.259Z,1.30
2019-02-10T07:12:27.234Z,1.60
2019-02-10T07:13:27.235Z,1.20
2019-02-10T07:14:27.177Z,1.70
2019-02-10T07:15:27.140Z,1.90
2019-02-10T07:16:27.087Z,3.10
2019-02-10T07:17:27.071Z,1.40
2019-02-10T07:18:27.048Z,2.20
2019-02-10T07:19:27.014Z,1.20
2019-02-10T07:20:26.958Z,1.30
2019-02-10T07:21:28.675Z,1.40
2019-02-10T07:22:26.894Z,1.50
2019-02-10T07:23:26.884Z,1.50
2019-02-10T07:24:27.039Z,1.00
2019-02-10T07:25:26.825Z,2.80
2019-02-10T07:26:26.794Z,1.50
2019-02-10T07:27:26.747Z,1.50
2019-02-10T07:28:26.714Z,4.60
2019-02-10T07:29:26.679Z,1.60
2019-02-10T07:30:26.845Z,1.70
2019-02-10T07:31:26.668Z,2.80
2019-02-10T07:32:26.579Z,3.40
2019-02-10T07:33:26.519Z,1.70
2019-02-10T07:34:26.497Z,2.50
2019-02-10T07:35:26.485Z,2.90
2019-02-10T07:36:26.428Z,3.30
2019-02-10T07:37:26.424Z,1.40
2019-02-10T07:38:26.410Z,1.90
2019-02-10T07:39:26.374Z,2.30
2019-02-10T07:40:26.352Z,1.40
2019-02-10T07:41:26.300Z,1.20
2019-02-10T07:42:26.245Z,1.90
2019-02-10T07:43:26.215Z,2.30
2019-02-10T07:44:26.192Z,1.60
2019-02-10T07:45:26.157Z,1.70
2019-02-10T07:46:26.131Z,1.40
2019-02-10T07:47:26.123Z,2.70
2019-02-10T07:48:26.052Z,1.20
2019-02-10T07:49:26.006Z,2.30
2019-02-10T07:50:25.989Z,1.80
2019-02-10T07:51:25.960Z,1.80
2019-02-10T07:52:25.925Z,1.50
2019-02-10T07:53:25.901Z,2.00
2019-02-10T07:54:25.864Z,2.50
2019-02-10T07:55:25.823Z,3.30
2019-02-10T07:56:26.202Z,3.30
2019-02-10T07:57:25.771Z,1.60
2019-02-10T07:58:25.713Z,1.90
2019-02-10T07:59:25.696Z,3.40
2019-02-10T08:00:25.678Z,2.60
2019-02-10T08:01:25.630Z,1.90
2019-02-10T08:02:25.938Z,2.10
2019-02-10T08:03:25.560Z,1.40
2019-02-10T08:04:25.510Z,2.70
2019-02-10T08:05:25.485Z,2.20
2019-02-10T08:06:25.452Z,1.80
2019-02-10T08:07:25.422Z,4.20
2019-02-10T08:08:26.668Z,2.10
2019-02-10T08:09:25.375Z,3.80
2019-02-10T08:10:25.452Z,5.90
2019-02-10T08:11:25.313Z,1.50
2019-02-10T08:12:25.263Z,1.60
2019-02-10T08:13:25.274Z,1.40
2019-02-10T08:14:25.201Z,2.00
2019-02-10T08:15:25.146Z,1.40
2019-02-10T08:16:25.151Z,2.10
2019-02-10T08:17:25.092Z,1.90
2019-02-10T08:18:25.080Z,1.80
2019-02-10T08:19:25.041Z,1.50
2019-02-10T08:20:24.988Z,1.40
2019-02-10T08:21:24.973Z,1.80
2019-02-10T08:22:24.922Z,1.70
2019-02-10T08:23:24.915Z,2.30
2019-02-10T08:24:25.036Z,2.20
2019-02-10T08:25:24.870Z,1.50
2019-02-10T08:26:24.826Z,1.60
2019-02-10T08:27:24.763Z,1.40
2019-02-10T08:28:24.766Z,3.10
2019-02-10T08:29:24.707Z,2.50
2019-02-10T08:30:25.078Z,1.80
2019-02-10T08:31:24.650Z,2.10
2019-02-10T08:32:24.613Z,2.50
2019-02-10T08:33:24.580Z,1.50
2019-02-10T08:34:24.562Z,2.10
2019-02-10T08:35:24.502Z,1.70
2019-02-10T08:36:24.521Z,1.30
2019-02-10T08:37:24.435Z,1.80
2019-02-10T08:38:24.413Z,7.00
2019-02-10T08:39:24.384Z,1.40
2019-02-10T08:40:24.354Z,1.50
2019-02-10T08:41:24.316Z,1.90
2019-02-10T08:42:24.283Z,2.50
2019-02-10T08:43:24.237Z,1.10
2019-02-10T08:44:24.221Z,1.60
2019-02-10T08:45:24.175Z,1.50
2019-02-10T08:46:24.150Z,2.20
2019-02-10T08:47:24.123Z,1.30
2019-02-10T08:48:24.081Z,2.40
2019-02-10T08:49:25.641Z,1.80
2019-02-10T08:50:24.029Z,1.50
2019-02-10T08:51:23.964Z,1.60
2019-02-10T08:52:23.954Z,1.30
2019-02-10T08:53:23.900Z,2.30
2019-02-10T08:54:23.865Z,2.30
2019-02-10T08:55:23.873Z,2.80
2019-02-10T08:56:23.803Z,1.50
2019-02-10T08:57:23.834Z,2.00
2019-02-10T08:58:23.755Z,2.20
2019-02-10T08:59:23.725Z,1.40
2019-02-10T09:00:23.690Z,1.20
2019-02-10T09:01:23.658Z,1.90
2019-02-10T09:02:23.627Z,1.80
2019-02-10T09:03:23.805Z,1.50
2019-02-10T09:04:23.557Z,3.10
2019-02-10T09:05:23.507Z,2.30
2019-02-10T09:06:23.495Z,3.40
2019-02-10T09:07:23.467Z,1.50
2019-02-10T09:08:23.435Z,1.50
2019-02-10T09:09:23.408Z,1.60
2019-02-10T09:10:23.375Z,2.40
2019-02-10T09:11:23.332Z,1.80
2019-02-10T09:12:23.292Z,2.60
2019-02-10T09:13:23.263Z,1.50
2019-02-10T09:14:23.226Z,2.90
2019-02-10T09:15:23.206Z,1.90
2019-02-10T09:16:23.151Z,1.70
2019-02-10T09:17:23.132Z,2.00
2019-02-10T09:18:23.073Z,2.40
2019-02-10T09:19:23.071Z,1.60
2019-02-10T09:20:23.009Z,1.70
2019-02-10T09:21:22.991Z,2.50
2019-02-10T09:22:22.961Z,1.70
2019-02-10T09:23:22.939Z,1.40
2019-02-10T09:24:23.047Z,1.60
2019-02-10T09:25:22.873Z,1.30
2019-02-10T09:26:22.846Z,1.80
2019-02-10T09:27:22.911Z,1.50
2019-02-10T09:28:22.760Z,2.90
2019-02-10T09:29:22.943Z,1.40
2019-02-10T09:30:22.854Z,1.50
2019-02-10T09:31:22.663Z,1.30
2019-02-10T09:32:22.638Z,1.60
2019-02-10T09:33:22.599Z,1.80
2019-02-10T09:34:22.556Z,2.00
2019-02-10T09:35:22.544Z,1.50
2019-02-10T09:36:22.499Z,1.20
2019-02-10T09:37:22.493Z,1.60
2019-02-10T09:38:22.453Z,1.40
2019-02-10T09:39:22.403Z,1.30
2019-02-10T09:41:22.373Z,1.90
2019-02-10T09:42:22.296Z,2.10
2019-02-10T09:43:22.251Z,1.70
2019-02-10T09:44:22.229Z,1.50
2019-02-10T09:45:22.214Z,1.50
2019-02-10T09:46:22.217Z,2.00
2019-02-10T09:47:22.144Z,2.50
2019-02-10T09:48:22.118Z,1.20
2019-02-10T09:49:22.071Z,1.40
2019-02-10T09:50:22.039Z,2.30
2019-02-10T09:51:22.012Z,1.50
2019-02-10T09:52:21.977Z,1.60
2019-02-10T09:53:21.960Z,2.30
2019-02-10T09:54:21.910Z,1.90
2019-02-10T09:55:21.885Z,1.60
2019-02-10T09:56:21.919Z,1.50
2019-02-10T09:57:21.831Z,1.40
2019-02-10T09:58:21.819Z,5.80
2019-02-10T09:59:21.756Z,6.60
2019-02-10T10:00:21.709Z,6.70
2019-02-10T10:01:21.689Z,2.20
2019-02-10T10:02:21.672Z,1.60
2019-02-10T10:03:21.633Z,2.70
2019-02-10T10:04:21.612Z,2.00
2019-02-10T10:05:21.536Z,1.70
2019-02-10T10:06:22.651Z,2.20
2019-02-10T10:07:21.637Z,1.70
2019-02-10T10:08:21.456Z,1.20
2019-02-10T10:09:21.431Z,1.70
2019-02-10T10:10:21.397Z,1.80
2019-02-10T10:11:21.377Z,1.60
2019-02-10T10:13:21.284Z,1.80
2019-02-10T10:14:21.248Z,1.70
2019-02-10T10:15:21.216Z,1.50
2019-02-10T10:16:21.186Z,2.00
2019-02-10T10:17:21.157Z,1.50
2019-02-10T10:18:21.131Z,1.60
2019-02-10T10:19:21.089Z,1.50
2019-02-10T10:20:21.045Z,1.60
2019-02-10T10:21:22.311Z,1.80
2019-02-10T10:22:21.017Z,3.80
2019-02-10T10:24:20.938Z,2.90
2019-02-10T10:25:20.926Z,1.80
2019-02-10T10:26:20.867Z,1.60
2019-02-10T10:27:20.867Z,2.50
2019-02-10T10:28:20.796Z,1.40
2019-02-10T10:29:20.790Z,1.60
2019-02-10T10:30:20.737Z,1.70
2019-02-10T10:31:20.708Z,2.30
2019-02-10T10:32:20.854Z,2.50
2019-02-10T10:33:20.654Z,1.20
2019-02-10T10:34:20.585Z,1.50
2019-02-10T10:35:20.569Z,1.40
2019-02-10T10:36:20.535Z,1.80
2019-02-10T10:37:20.707Z,1.80
2019-02-10T10:38:20.469Z,1.70
2019-02-10T10:39:27.117Z,2.30
2019-02-10T10:40:20.414Z,1.60
2019-02-10T10:41:20.586Z,1.60
2019-02-10T10:42:20.472Z,1.90
2019-02-10T10:43:20.334Z,1.50
2019-02-10T10:44:20.301Z,1.20
2019-02-10T10:45:20.332Z,1.40
2019-02-10T10:46:20.236Z,2.40
2019-02-10T10:47:20.323Z,1.40
2019-02-10T10:48:20.141Z,1.70
2019-02-10T10:49:20.104Z,3.20
2019-02-10T10:50:20.240Z,1.50
2019-02-10T10:51:20.047Z,1.20
2019-02-10T10:52:20.020Z,1.40
2019-02-10T10:53:20.046Z,2.40
2019-02-10T10:54:19.965Z,2.30
2019-02-10T10:55:19.985Z,2.40
2019-02-10T10:56:20.098Z,1.50
2019-02-10T10:57:19.863Z,1.50
2019-02-10T10:58:19.824Z,2.30
2019-02-10T10:59:19.801Z,1.70
2019-02-10T11:00:19.756Z,1.70
2019-02-10T11:01:25.144Z,1.60
2019-02-10T11:02:19.840Z,1.30
2019-02-10T11:03:19.658Z,2.30
2019-02-10T11:04:19.630Z,1.80
2019-02-10T11:05:19.575Z,1.40
2019-02-10T11:06:19.572Z,1.10
2019-02-10T11:07:19.682Z,1.50
2019-02-10T11:08:19.498Z,1.90
2019-02-10T11:09:19.456Z,1.40
2019-02-10T11:10:19.587Z,1.20
2019-02-10T11:11:19.562Z,1.90
2019-02-10T11:12:19.382Z,1.50
2019-02-10T11:13:19.354Z,1.00
2019-02-10T11:14:19.318Z,1.70
2019-02-10T11:15:19.384Z,1.50
2019-02-10T11:16:19.261Z,1.40
2019-02-10T11:17:19.214Z,1.70
2019-02-10T11:18:19.187Z,2.00
2019-02-10T11:19:19.126Z,1.50
2019-02-10T11:20:19.301Z,1.10
2019-02-10T11:21:19.087Z,1.80
2019-02-10T11:22:19.055Z,2.90
2019-02-10T11:23:19.019Z,1.80
2019-02-10T11:24:18.991Z,1.20
2019-02-10T11:25:18.969Z,2.90
2019-02-10T11:26:18.899Z,1.60
2019-02-10T11:27:19.075Z,1.50
2019-02-10T11:28:18.879Z,2.10
2019-02-10T11:29:18.814Z,1.10
2019-02-10T11:30:18.779Z,1.60
2019-02-10T11:31:18.776Z,1.20
2019-02-10T11:32:18.731Z,1.30
2019-02-10T11:33:18.775Z,1.60
2019-02-10T11:34:18.678Z,1.70
2019-02-10T11:35:18.780Z,2.70
2019-02-10T11:36:18.606Z,3.80
2019-02-10T11:37:26.572Z,1.60
2019-02-10T11:38:18.515Z,2.30
2019-02-10T11:39:18.499Z,1.10
2019-02-10T11:40:18.699Z,1.30
2019-02-10T11:41:18.459Z,2.80
2019-02-10T11:42:18.395Z,1.30
2019-02-10T11:43:18.350Z,1.20
2019-02-10T11:44:18.330Z,1.80
2019-02-10T11:45:18.509Z,2.60
2019-02-10T11:46:18.278Z,2.00
2019-02-10T11:47:18.237Z,1.10
2019-02-10T11:48:18.230Z,1.40
2019-02-10T11:49:18.210Z,1.30
2019-02-10T11:50:18.334Z,1.20
2019-02-10T11:51:18.098Z,2.50
2019-02-10T11:52:18.069Z,1.30
2019-02-10T11:53:18.078Z,1.60
2019-02-10T11:54:18.037Z,1.30
2019-02-10T11:55:18.000Z,1.40
2019-02-10T11:56:17.967Z,2.00
2019-02-10T11:57:17.917Z,1.30
2019-02-10T11:58:17.902Z,1.70
2019-02-10T11:59:17.865Z,1.50
2019-02-10T12:00:17.835Z,1.30
2019-02-10T12:01:17.956Z,1.40
2019-02-10T12:02:17.763Z,1.10
2019-02-10T12:03:17.733Z,2.00
2019-02-10T12:04:17.787Z,2.20
2019-02-10T12:05:17.671Z,1.30
2019-02-10T12:06:17.789Z,1.30
2019-02-10T12:07:17.623Z,1.70
2019-02-10T12:08:17.553Z,1.50
2019-02-10T12:09:17.543Z,1.40
2019-02-10T12:10:17.520Z,1.80
2019-02-10T12:11:17.746Z,1.20
2019-02-10T12:12:17.434Z,1.10
2019-02-10T12:13:17.421Z,1.00
2019-02-10T12:14:17.395Z,1.40
2019-02-10T12:15:17.363Z,1.40
2019-02-10T12:17:17.291Z,0.50
2019-02-10T12:18:17.256Z,1.70
2019-02-10T12:19:17.209Z,1.20
2019-02-10T12:20:17.233Z,1.30
2019-02-10T12:21:17.271Z,1.40
2019-02-10T12:22:17.124Z,1.50
2019-02-10T12:23:17.081Z,1.10
2019-02-10T12:24:17.074Z,1.70
2019-02-10T12:25:17.021Z,1.60
2019-02-10T12:26:17.198Z,1.20
2019-02-10T12:27:16.948Z,1.40
2019-02-10T12:28:16.941Z,1.80
2019-02-10T12:29:16.893Z,1.70
2019-02-10T12:30:16.874Z,1.30
2019-02-10T12:31:16.906Z,1.80
2019-02-10T12:32:16.821Z,1.70
2019-02-10T12:33:16.795Z,1.40
2019-02-10T12:34:16.762Z,1.30
2019-02-10T12:35:16.714Z,1.60
2019-02-10T12:36:17.079Z,1.60
2019-02-10T12:37:16.654Z,1.70
2019-02-10T12:38:16.634Z,1.40
2019-02-10T12:39:16.596Z,2.00
2019-02-10T12:40:16.564Z,1.60
2019-02-10T12:41:16.677Z,1.30
2019-02-10T12:42:17.173Z,1.70
2019-02-10T12:46:46.330Z,0.90
2019-02-10T12:47:46.565Z,1.70
2019-02-10T12:48:46.268Z,2.70
2019-02-10T12:49:46.221Z,3.20
2019-02-10T12:50:46.189Z,1.20
2019-02-10T12:51:46.146Z,1.50
2019-02-10T12:52:46.140Z,1.70
2019-02-10T12:53:46.082Z,2.30
2019-02-10T12:54:46.080Z,1.60
2019-02-10T12:55:46.053Z,1.90
2019-02-10T12:56:46.024Z,1.70
2019-02-10T12:57:45.982Z,2.40
2019-02-10T12:58:46.163Z,1.00
2019-02-10T12:59:45.934Z,1.30
2019-02-10T13:00:45.884Z,1.20
2019-02-10T13:01:45.865Z,2.00
2019-02-10T13:02:45.821Z,1.10
2019-02-10T13:03:45.778Z,1.10
2019-02-10T13:04:45.765Z,1.80
2019-02-10T13:05:45.729Z,1.30
2019-02-10T13:06:45.698Z,1.30
2019-02-10T13:07:45.659Z,1.50
2019-02-10T13:08:45.707Z,1.10
2019-02-10T13:09:45.620Z,1.50
2019-02-10T13:10:45.553Z,1.50
2019-02-10T13:11:45.529Z,1.50
2019-02-10T13:12:45.493Z,1.00
2019-02-10T13:13:45.462Z,1.40
2019-02-10T13:14:45.438Z,1.80
2019-02-10T13:15:45.421Z,1.20
2019-02-10T13:16:45.389Z,1.30
2019-02-10T13:17:45.348Z,1.40
2019-02-10T13:18:45.301Z,1.10
2019-02-10T13:19:45.278Z,1.20
2019-02-10T13:20:45.237Z,1.30
2019-02-10T13:21:45.232Z,1.70
2019-02-10T13:22:45.194Z,2.30
2019-02-10T13:23:45.152Z,2.20
2019-02-10T13:24:45.182Z,1.20
2019-02-10T13:25:45.091Z,1.10
2019-02-10T13:26:45.064Z,1.50
2019-02-10T13:27:45.057Z,3.30